RYR174C LQBK-ESSA
Flight info
| Callsign | RYR174C |
|---|---|
| Flight time | N/A |
| Altitude | 34000 |
| Route | TEBLI DCT OBUTI DCT INSAX/N0464F350 DCT LEDVA/N0465F340 DCT VAGON/N0463F360 DCT XIDNA DCT BEZMI DCT PENOR DCT ARMOD/N0461F370 Z228 NILUG |
| Aircraft | B738/M-SDE2E3FGHIRWXY/LB1 |
Departure
| Time | 2026-04-23 11:19 |
|---|---|
| Airport | Banja Luka International Airport (LQBK) |
Arrival
| Time | N/A |
|---|---|
| Airport | Stockholm-Arlanda Airport (ESSA) |
| Time | Latitude | Longitude | Altitude | Speed | Heading |
|---|---|---|---|---|---|
| 2026-04-23 11:00 | 44.93306 | 17.30281 | 390 ft | 0 kts | 12° |
| 2026-04-23 11:17 | 44.93318 | 17.30283 | 390 ft | 5 kts | 0° |
| 2026-04-23 11:17 | 44.93334 | 17.30224 | 390 ft | 9 kts | 242° |
| 2026-04-23 11:17 | 44.93268 | 17.30225 | 390 ft | 10 kts | 169° |
| 2026-04-23 11:17 | 44.93203 | 17.30207 | 390 ft | 10 kts | 211° |
| 2026-04-23 11:18 | 44.93147 | 17.30154 | 390 ft | 10 kts | 214° |
| 2026-04-23 11:18 | 44.93093 | 17.30103 | 391 ft | 9 kts | 214° |
| 2026-04-23 11:18 | 44.93076 | 17.30033 | 389 ft | 9 kts | 306° |
| 2026-04-23 11:18 | 44.93145 | 17.30009 | 394 ft | 23 kts | 351° |
| 2026-04-23 11:19 | 44.93549 | 17.29905 | 388 ft | 94 kts | 349° |
| 2026-04-23 11:19 | 44.94395 | 17.29685 | 410 ft | 149 kts | 347° |
| 2026-04-23 11:19 | 44.95467 | 17.29441 | 957 ft | 158 kts | 349° |
| 2026-04-23 11:19 | 44.96560 | 17.29156 | 1766 ft | 156 kts | 348° |
| 2026-04-23 11:20 | 44.97604 | 17.28855 | 2577 ft | 157 kts | 349° |
| 2026-04-23 11:20 | 44.98667 | 17.28572 | 3276 ft | 155 kts | 349° |
| 2026-04-23 11:20 | 44.99760 | 17.28286 | 3868 ft | 166 kts | 349° |
| 2026-04-23 11:20 | 45.00999 | 17.27957 | 4126 ft | 193 kts | 350° |
| 2026-04-23 11:21 | 45.02361 | 17.27380 | 4304 ft | 218 kts | 328° |
| 2026-04-23 11:21 | 45.03351 | 17.25678 | 4684 ft | 238 kts | 301° |
| 2026-04-23 11:21 | 45.04087 | 17.23445 | 5117 ft | 257 kts | 297° |
| 2026-04-23 11:21 | 45.04815 | 17.21109 | 5913 ft | 260 kts | 297° |
| 2026-04-23 11:22 | 45.05546 | 17.18771 | 6782 ft | 260 kts | 297° |
| 2026-04-23 11:22 | 45.06299 | 17.16396 | 7468 ft | 268 kts | 297° |
| 2026-04-23 11:22 | 45.07073 | 17.13967 | 8200 ft | 273 kts | 298° |
| 2026-04-23 11:22 | 45.07859 | 17.11504 | 8982 ft | 276 kts | 298° |
| 2026-04-23 11:23 | 45.08613 | 17.09015 | 9702 ft | 282 kts | 297° |
| 2026-04-23 11:23 | 45.09345 | 17.06410 | 10346 ft | 291 kts | 297° |
| 2026-04-23 11:23 | 45.10120 | 17.03633 | 10542 ft | 314 kts | 296° |
| 2026-04-23 11:23 | 45.10949 | 17.00662 | 10725 ft | 336 kts | 296° |
| 2026-04-23 11:24 | 45.11835 | 16.97478 | 10895 ft | 357 kts | 296° |
| 2026-04-23 11:24 | 45.12771 | 16.94115 | 11055 ft | 377 kts | 296° |
| 2026-04-23 11:24 | 45.13752 | 16.90586 | 11349 ft | 390 kts | 296° |
| 2026-04-23 11:24 | 45.14753 | 16.86987 | 11923 ft | 395 kts | 296° |
| 2026-04-23 11:25 | 45.15763 | 16.83359 | 12557 ft | 398 kts | 296° |
| 2026-04-23 11:25 | 45.16792 | 16.79690 | 13158 ft | 402 kts | 296° |
| 2026-04-23 11:25 | 45.17838 | 16.75988 | 13724 ft | 406 kts | 296° |
| 2026-04-23 11:25 | 45.18925 | 16.72270 | 14286 ft | 408 kts | 301° |
| 2026-04-23 11:26 | 45.20583 | 16.69083 | 14775 ft | 400 kts | 322° |
| 2026-04-23 11:26 | 45.22832 | 16.66911 | 15325 ft | 394 kts | 338° |
| 2026-04-23 11:26 | 45.25412 | 16.65674 | 15834 ft | 392 kts | 349° |
| 2026-04-23 11:26 | 45.28088 | 16.64789 | 16354 ft | 395 kts | 351° |
| 2026-04-23 11:27 | 45.30782 | 16.63929 | 16838 ft | 399 kts | 351° |
| 2026-04-23 11:27 | 45.33500 | 16.63062 | 17318 ft | 402 kts | 351° |
| 2026-04-23 11:27 | 45.36239 | 16.62176 | 17821 ft | 405 kts | 351° |
| 2026-04-23 11:27 | 45.39002 | 16.61270 | 18294 ft | 409 kts | 351° |
| 2026-04-23 11:28 | 45.41791 | 16.60343 | 18709 ft | 412 kts | 351° |
| 2026-04-23 11:28 | 45.44599 | 16.59402 | 19128 ft | 415 kts | 350° |
| 2026-04-23 11:28 | 45.47417 | 16.58453 | 19567 ft | 417 kts | 350° |
| 2026-04-23 11:28 | 45.50250 | 16.57496 | 19969 ft | 420 kts | 350° |
| 2026-04-23 11:29 | 45.53103 | 16.56530 | 20357 ft | 422 kts | 350° |
| 2026-04-23 11:29 | 45.55936 | 16.55570 | 20738 ft | 425 kts | 350° |
| 2026-04-23 11:29 | 45.58822 | 16.54591 | 21120 ft | 428 kts | 350° |
| 2026-04-23 11:29 | 45.61727 | 16.53606 | 21488 ft | 430 kts | 350° |
| 2026-04-23 11:30 | 45.64686 | 16.52600 | 21847 ft | 433 kts | 350° |
| 2026-04-23 11:30 | 45.67583 | 16.51614 | 22203 ft | 435 kts | 350° |
| 2026-04-23 11:30 | 45.70539 | 16.50607 | 22560 ft | 437 kts | 350° |
| 2026-04-23 11:30 | 45.73506 | 16.49595 | 22900 ft | 440 kts | 350° |
| 2026-04-23 11:31 | 45.76491 | 16.48577 | 23239 ft | 442 kts | 350° |
| 2026-04-23 11:31 | 45.79502 | 16.47549 | 23572 ft | 444 kts | 350° |
| 2026-04-23 11:31 | 45.82523 | 16.46515 | 23880 ft | 446 kts | 350° |
| 2026-04-23 11:31 | 45.85552 | 16.45478 | 24150 ft | 448 kts | 350° |
| 2026-04-23 11:32 | 45.88597 | 16.44434 | 24432 ft | 449 kts | 350° |
| 2026-04-23 11:32 | 45.91646 | 16.43388 | 24705 ft | 451 kts | 350° |
| 2026-04-23 11:32 | 45.94668 | 16.42350 | 24973 ft | 453 kts | 350° |
| 2026-04-23 11:32 | 45.97739 | 16.41293 | 25218 ft | 454 kts | 350° |
| 2026-04-23 11:33 | 46.00822 | 16.40231 | 25489 ft | 455 kts | 350° |
| 2026-04-23 11:33 | 46.03909 | 16.39167 | 25798 ft | 455 kts | 350° |
| 2026-04-23 11:33 | 46.06991 | 16.38102 | 26101 ft | 455 kts | 350° |
| 2026-04-23 11:33 | 46.10071 | 16.37038 | 26419 ft | 454 kts | 350° |
| 2026-04-23 11:34 | 46.13151 | 16.35972 | 26771 ft | 453 kts | 350° |
| 2026-04-23 11:34 | 46.16173 | 16.34925 | 27147 ft | 451 kts | 350° |
| 2026-04-23 11:34 | 46.19220 | 16.33868 | 27509 ft | 450 kts | 350° |
| 2026-04-23 11:34 | 46.22269 | 16.32810 | 27899 ft | 448 kts | 350° |
| 2026-04-23 11:35 | 46.25279 | 16.31762 | 28428 ft | 443 kts | 350° |
| 2026-04-23 11:35 | 46.28273 | 16.30720 | 28844 ft | 441 kts | 350° |
| 2026-04-23 11:35 | 46.31258 | 16.29682 | 29153 ft | 441 kts | 351° |
| 2026-04-23 11:35 | 46.34246 | 16.28642 | 29463 ft | 441 kts | 351° |
| 2026-04-23 11:36 | 46.37230 | 16.27601 | 29825 ft | 440 kts | 351° |
| 2026-04-23 11:36 | 46.40203 | 16.26603 | 30211 ft | 437 kts | 352° |
| 2026-04-23 11:36 | 46.43180 | 16.25695 | 30484 ft | 436 kts | 352° |
| 2026-04-23 11:36 | 46.46152 | 16.24827 | 30788 ft | 435 kts | 353° |
| 2026-04-23 11:37 | 46.49080 | 16.23977 | 31060 ft | 434 kts | 353° |
| 2026-04-23 11:37 | 46.52081 | 16.23100 | 31297 ft | 435 kts | 353° |
| 2026-04-23 11:37 | 46.55013 | 16.22233 | 31524 ft | 435 kts | 352° |
| 2026-04-23 11:37 | 46.57979 | 16.21348 | 31777 ft | 435 kts | 352° |
| 2026-04-23 11:38 | 46.60945 | 16.20457 | 32028 ft | 434 kts | 352° |
| 2026-04-23 11:38 | 46.63904 | 16.19564 | 32262 ft | 434 kts | 352° |
| 2026-04-23 11:38 | 46.66862 | 16.18670 | 32515 ft | 433 kts | 352° |
| 2026-04-23 11:38 | 46.69814 | 16.17776 | 32815 ft | 432 kts | 352° |
| 2026-04-23 11:39 | 46.72758 | 16.16884 | 33073 ft | 431 kts | 352° |
| 2026-04-23 11:39 | 46.75695 | 16.15994 | 33322 ft | 431 kts | 352° |
| 2026-04-23 11:39 | 46.78630 | 16.15103 | 33598 ft | 430 kts | 352° |
| 2026-04-23 11:39 | 46.81528 | 16.14223 | 33843 ft | 430 kts | 352° |
| 2026-04-23 11:40 | 46.84456 | 16.13333 | 34067 ft | 430 kts | 352° |
| 2026-04-23 11:40 | 46.90351 | 16.11539 | 34157 ft | 432 kts | 352° |
| 2026-04-23 11:41 | 46.96193 | 16.09754 | 34162 ft | 429 kts | 352° |
| 2026-04-23 11:41 | 47.02059 | 16.08962 | 34168 ft | 420 kts | 6° |
| 2026-04-23 11:42 | 47.07728 | 16.10423 | 34175 ft | 414 kts | 17° |
| 2026-04-23 11:42 | 47.12380 | 16.12326 | 34167 ft | 414 kts | 17° |
| 2026-04-23 11:43 | 47.17939 | 16.14614 | 34162 ft | 415 kts | 17° |
| 2026-04-23 11:43 | 47.23488 | 16.16871 | 34164 ft | 416 kts | 17° |
| 2026-04-23 11:44 | 47.29091 | 16.19136 | 34163 ft | 418 kts | 17° |
| 2026-04-23 11:44 | 47.34700 | 16.21403 | 34166 ft | 418 kts | 17° |
| 2026-04-23 11:45 | 47.40305 | 16.23672 | 34167 ft | 417 kts | 17° |
| 2026-04-23 11:45 | 47.45863 | 16.25928 | 34161 ft | 417 kts | 17° |
| 2026-04-23 11:46 | 47.51465 | 16.28208 | 34162 ft | 417 kts | 17° |
| 2026-04-23 11:46 | 47.57050 | 16.30485 | 34165 ft | 416 kts | 17° |
| 2026-04-23 11:47 | 47.62631 | 16.32766 | 34169 ft | 415 kts | 17° |
| 2026-04-23 11:47 | 47.68177 | 16.35028 | 34141 ft | 415 kts | 16° |
| 2026-04-23 11:48 | 47.73735 | 16.37274 | 34168 ft | 414 kts | 17° |
| 2026-04-23 11:48 | 47.79292 | 16.39585 | 34169 ft | 414 kts | 17° |
| 2026-04-23 11:49 | 47.84846 | 16.41891 | 34167 ft | 415 kts | 17° |
| 2026-04-23 11:49 | 47.90405 | 16.44193 | 34168 ft | 415 kts | 17° |
| 2026-04-23 11:50 | 47.95978 | 16.46501 | 34167 ft | 416 kts | 17° |
| 2026-04-23 11:50 | 48.01553 | 16.48815 | 34159 ft | 416 kts | 17° |
| 2026-04-23 11:51 | 48.07133 | 16.51136 | 34153 ft | 416 kts | 17° |
| 2026-04-23 11:51 | 48.12689 | 16.53453 | 34157 ft | 417 kts | 17° |
| 2026-04-23 11:52 | 48.18280 | 16.55789 | 34157 ft | 417 kts | 17° |
| 2026-04-23 11:52 | 48.23877 | 16.58133 | 34158 ft | 418 kts | 17° |
| 2026-04-23 11:53 | 48.29479 | 16.60485 | 34158 ft | 418 kts | 17° |
| 2026-04-23 11:53 | 48.35091 | 16.62846 | 34151 ft | 418 kts | 17° |
| 2026-04-23 11:54 | 48.40695 | 16.65210 | 34159 ft | 419 kts | 17° |
| 2026-04-23 11:54 | 48.46308 | 16.67583 | 34155 ft | 419 kts | 17° |
| 2026-04-23 11:55 | 48.51935 | 16.69966 | 34144 ft | 419 kts | 17° |
| 2026-04-23 11:55 | 48.57527 | 16.72341 | 34146 ft | 420 kts | 17° |
| 2026-04-23 11:56 | 48.63159 | 16.74739 | 34144 ft | 421 kts | 17° |
| 2026-04-23 11:56 | 48.68802 | 16.77147 | 34145 ft | 421 kts | 17° |
| 2026-04-23 11:57 | 48.74505 | 16.79202 | 34133 ft | 423 kts | 8° |
| 2026-04-23 11:57 | 48.80373 | 16.79881 | 34134 ft | 421 kts | 7° |
| 2026-04-23 11:58 | 48.86166 | 16.80519 | 34130 ft | 419 kts | 7° |
| 2026-04-23 11:58 | 48.91971 | 16.81190 | 34133 ft | 417 kts | 7° |
| 2026-04-23 11:59 | 48.97782 | 16.81884 | 34136 ft | 416 kts | 7° |
| 2026-04-23 11:59 | 49.03555 | 16.82581 | 34135 ft | 416 kts | 7° |
| 2026-04-23 12:00 | 49.09289 | 16.83277 | 34125 ft | 416 kts | 7° |
| 2026-04-23 12:00 | 49.15075 | 16.83979 | 34131 ft | 416 kts | 7° |
| 2026-04-23 12:01 | 49.20851 | 16.84682 | 34131 ft | 416 kts | 7° |
| 2026-04-23 12:01 | 49.26629 | 16.85386 | 34140 ft | 416 kts | 7° |
| 2026-04-23 12:02 | 49.32410 | 16.86092 | 34140 ft | 416 kts | 7° |
| 2026-04-23 12:02 | 49.38155 | 16.86797 | 34135 ft | 417 kts | 7° |
| 2026-04-23 12:03 | 49.43945 | 16.87507 | 34143 ft | 416 kts | 7° |
| 2026-04-23 12:03 | 49.49718 | 16.88218 | 34141 ft | 416 kts | 7° |
| 2026-04-23 12:04 | 49.55486 | 16.88929 | 34143 ft | 415 kts | 7° |
| 2026-04-23 12:04 | 49.61207 | 16.89637 | 34139 ft | 415 kts | 7° |
| 2026-04-23 12:05 | 49.66965 | 16.90350 | 34150 ft | 414 kts | 7° |
| 2026-04-23 12:05 | 49.72711 | 16.91063 | 34134 ft | 412 kts | 8° |
| 2026-04-23 12:06 | 49.78407 | 16.91772 | 34137 ft | 409 kts | 8° |
| 2026-04-23 12:06 | 49.86861 | 16.92828 | 34137 ft | 407 kts | 8° |
| 2026-04-23 12:07 | 49.92514 | 16.93537 | 34140 ft | 406 kts | 8° |
| 2026-04-23 12:07 | 49.98155 | 16.94245 | 34148 ft | 406 kts | 8° |
| 2026-04-23 12:08 | 50.03796 | 16.94956 | 34134 ft | 407 kts | 8° |
| 2026-04-23 12:08 | 50.09403 | 16.95663 | 34124 ft | 407 kts | 8° |
| 2026-04-23 12:09 | 50.15053 | 16.96378 | 34131 ft | 408 kts | 8° |
| 2026-04-23 12:09 | 50.20715 | 16.97096 | 34135 ft | 408 kts | 8° |
| 2026-04-23 12:10 | 50.26394 | 16.97817 | 34148 ft | 409 kts | 8° |
| 2026-04-23 12:10 | 50.32070 | 16.98541 | 34139 ft | 410 kts | 8° |
| 2026-04-23 12:11 | 50.37757 | 16.99267 | 34143 ft | 410 kts | 8° |
| 2026-04-23 12:11 | 50.43401 | 16.99988 | 34140 ft | 410 kts | 8° |
| 2026-04-23 12:12 | 50.49096 | 17.00719 | 34135 ft | 410 kts | 8° |
| 2026-04-23 12:12 | 50.54777 | 17.01449 | 34151 ft | 409 kts | 8° |
| 2026-04-23 12:13 | 50.60444 | 17.02178 | 34147 ft | 408 kts | 8° |
| 2026-04-23 12:13 | 50.66091 | 17.02908 | 34134 ft | 407 kts | 8° |
| 2026-04-23 12:14 | 50.71718 | 17.03637 | 34135 ft | 405 kts | 8° |
| 2026-04-23 12:14 | 50.77331 | 17.04366 | 34143 ft | 404 kts | 8° |
| 2026-04-23 12:15 | 50.82937 | 17.05096 | 34143 ft | 404 kts | 8° |
| 2026-04-23 12:15 | 50.88502 | 17.05822 | 34135 ft | 403 kts | 9° |
| 2026-04-23 12:16 | 50.94096 | 17.06554 | 34133 ft | 403 kts | 9° |
| 2026-04-23 12:16 | 50.99700 | 17.07289 | 34132 ft | 403 kts | 8° |
| 2026-04-23 12:17 | 51.05264 | 17.08020 | 34133 ft | 403 kts | 9° |
| 2026-04-23 12:17 | 51.10852 | 17.08756 | 34129 ft | 402 kts | 9° |
| 2026-04-23 12:18 | 51.16433 | 17.09493 | 34131 ft | 402 kts | 9° |
| 2026-04-23 12:18 | 51.22004 | 17.10231 | 34131 ft | 402 kts | 9° |
| 2026-04-23 12:19 | 51.27578 | 17.10971 | 34127 ft | 401 kts | 9° |
| 2026-04-23 12:19 | 51.33191 | 17.10807 | 34120 ft | 410 kts | 356° |
| 2026-04-23 12:20 | 51.38774 | 17.09111 | 34122 ft | 411 kts | 355° |
| 2026-04-23 12:20 | 51.44389 | 17.07411 | 34126 ft | 411 kts | 355° |
| 2026-04-23 12:21 | 51.50005 | 17.05741 | 34091 ft | 410 kts | 355° |
| 2026-04-23 12:21 | 51.55631 | 17.04075 | 34107 ft | 409 kts | 355° |
| 2026-04-23 12:22 | 51.61198 | 17.02423 | 34128 ft | 409 kts | 355° |
| 2026-04-23 12:22 | 51.66808 | 17.00753 | 34122 ft | 409 kts | 355° |
| 2026-04-23 12:23 | 51.72409 | 17.00037 | 34116 ft | 399 kts | 9° |
| 2026-04-23 12:23 | 51.77938 | 17.00877 | 34123 ft | 399 kts | 9° |
| 2026-04-23 12:24 | 51.83451 | 17.01708 | 34116 ft | 399 kts | 9° |
| 2026-04-23 12:24 | 51.88986 | 17.02521 | 34117 ft | 399 kts | 9° |
| 2026-04-23 12:25 | 51.94517 | 17.03324 | 34122 ft | 399 kts | 9° |
| 2026-04-23 12:25 | 52.00056 | 17.04126 | 34119 ft | 399 kts | 9° |
| 2026-04-23 12:26 | 52.05563 | 17.04924 | 34112 ft | 399 kts | 8° |
| 2026-04-23 12:26 | 52.11093 | 17.05729 | 34109 ft | 399 kts | 8° |
| 2026-04-23 12:27 | 52.16628 | 17.06536 | 34109 ft | 398 kts | 8° |
| 2026-04-23 12:27 | 52.22119 | 17.07339 | 34110 ft | 398 kts | 8° |
| 2026-04-23 12:28 | 52.27647 | 17.08149 | 34108 ft | 398 kts | 8° |
| 2026-04-23 12:28 | 52.33171 | 17.08961 | 34106 ft | 398 kts | 8° |
| 2026-04-23 12:29 | 52.38702 | 17.09777 | 34095 ft | 398 kts | 8° |
| 2026-04-23 12:29 | 52.43306 | 17.10457 | 34102 ft | 400 kts | 8° |
| 2026-04-23 12:30 | 52.48860 | 17.11279 | 34117 ft | 401 kts | 8° |
| 2026-04-23 12:30 | 52.54427 | 17.12105 | 34113 ft | 402 kts | 8° |
| 2026-04-23 12:31 | 52.59975 | 17.12930 | 34109 ft | 402 kts | 8° |
| 2026-04-23 12:31 | 52.65551 | 17.13761 | 34107 ft | 402 kts | 8° |
| 2026-04-23 12:32 | 52.71121 | 17.14594 | 34104 ft | 402 kts | 8° |
| 2026-04-23 12:32 | 52.76691 | 17.15429 | 34108 ft | 401 kts | 8° |
| 2026-04-23 12:33 | 52.82255 | 17.16265 | 34103 ft | 401 kts | 8° |
| 2026-04-23 12:33 | 52.87816 | 17.17103 | 34106 ft | 401 kts | 8° |
| 2026-04-23 12:34 | 52.93375 | 17.17943 | 34110 ft | 400 kts | 8° |
| 2026-04-23 12:34 | 52.98925 | 17.18784 | 34108 ft | 400 kts | 8° |
| 2026-04-23 12:35 | 53.04436 | 17.19621 | 34110 ft | 400 kts | 7° |
| 2026-04-23 12:35 | 53.09976 | 17.20464 | 34103 ft | 399 kts | 7° |
| 2026-04-23 12:36 | 53.15510 | 17.21309 | 34109 ft | 399 kts | 7° |
| 2026-04-23 12:36 | 53.21039 | 17.22155 | 34102 ft | 399 kts | 7° |
| 2026-04-23 12:37 | 53.26566 | 17.23003 | 34119 ft | 398 kts | 7° |
| 2026-04-23 12:37 | 53.32053 | 17.23847 | 34106 ft | 398 kts | 7° |
| 2026-04-23 12:38 | 53.37573 | 17.24698 | 34107 ft | 397 kts | 7° |
| 2026-04-23 12:38 | 53.43089 | 17.25551 | 34109 ft | 397 kts | 7° |
| 2026-04-23 12:39 | 53.48572 | 17.26402 | 34103 ft | 398 kts | 7° |
| 2026-04-23 12:39 | 53.54091 | 17.27259 | 34115 ft | 399 kts | 7° |
| 2026-04-23 12:40 | 53.59616 | 17.28120 | 34107 ft | 399 kts | 7° |
| 2026-04-23 12:40 | 53.65165 | 17.28988 | 34111 ft | 400 kts | 7° |
| 2026-04-23 12:41 | 53.70704 | 17.29855 | 34118 ft | 400 kts | 7° |
| 2026-04-23 12:41 | 53.76249 | 17.30727 | 34132 ft | 400 kts | 6° |
| 2026-04-23 12:42 | 53.81782 | 17.31598 | 34118 ft | 399 kts | 6° |
| 2026-04-23 12:42 | 53.87311 | 17.32471 | 34120 ft | 398 kts | 6° |
| 2026-04-23 12:43 | 53.92791 | 17.33338 | 34125 ft | 398 kts | 6° |
| 2026-04-23 12:43 | 53.98312 | 17.34215 | 34126 ft | 398 kts | 6° |
| 2026-04-23 12:44 | 54.03830 | 17.35093 | 34135 ft | 397 kts | 6° |
| 2026-04-23 12:44 | 54.09332 | 17.35971 | 34128 ft | 397 kts | 6° |
| 2026-04-23 12:45 | 54.14824 | 17.36850 | 34141 ft | 396 kts | 6° |
| 2026-04-23 12:45 | 54.20291 | 17.37728 | 34139 ft | 396 kts | 6° |
| 2026-04-23 12:46 | 54.25779 | 17.38611 | 34148 ft | 396 kts | 6° |
| 2026-04-23 12:46 | 54.31265 | 17.39496 | 34143 ft | 395 kts | 6° |
| 2026-04-23 12:47 | 54.36741 | 17.40380 | 34147 ft | 395 kts | 5° |
| 2026-04-23 12:47 | 54.42233 | 17.40118 | 34164 ft | 396 kts | 355° |
| 2026-04-23 12:48 | 54.47678 | 17.39024 | 34154 ft | 396 kts | 355° |
| 2026-04-23 12:48 | 54.53154 | 17.37947 | 34173 ft | 396 kts | 355° |
| 2026-04-23 12:49 | 54.58661 | 17.36882 | 34166 ft | 397 kts | 355° |
| 2026-04-23 12:49 | 54.64155 | 17.35823 | 34159 ft | 398 kts | 355° |
| 2026-04-23 12:50 | 54.69657 | 17.34761 | 34160 ft | 398 kts | 355° |
| 2026-04-23 12:50 | 54.75160 | 17.33695 | 34167 ft | 398 kts | 355° |
| 2026-04-23 12:51 | 54.80629 | 17.32634 | 34165 ft | 398 kts | 355° |
| 2026-04-23 12:51 | 54.86142 | 17.31560 | 34160 ft | 398 kts | 355° |
| 2026-04-23 12:52 | 54.91638 | 17.30487 | 34160 ft | 398 kts | 355° |
| 2026-04-23 12:52 | 54.97140 | 17.29410 | 34161 ft | 398 kts | 355° |
| 2026-04-23 12:53 | 55.02640 | 17.28331 | 34160 ft | 398 kts | 355° |
| 2026-04-23 12:53 | 55.08147 | 17.27247 | 34182 ft | 398 kts | 355° |
| 2026-04-23 12:54 | 55.13627 | 17.26165 | 34161 ft | 397 kts | 355° |
| 2026-04-23 12:54 | 55.19112 | 17.25080 | 34151 ft | 397 kts | 354° |
| 2026-04-23 12:55 | 55.24607 | 17.23989 | 34160 ft | 398 kts | 354° |
| 2026-04-23 12:55 | 55.30120 | 17.22892 | 34160 ft | 399 kts | 354° |
| 2026-04-23 12:56 | 55.35613 | 17.21795 | 34154 ft | 400 kts | 354° |
| 2026-04-23 12:56 | 55.41150 | 17.20685 | 34160 ft | 399 kts | 354° |
| 2026-04-23 12:57 | 55.46671 | 17.19578 | 34151 ft | 399 kts | 354° |
| 2026-04-23 12:57 | 55.52185 | 17.18469 | 34153 ft | 398 kts | 354° |
| 2026-04-23 12:58 | 55.57660 | 17.17364 | 34151 ft | 398 kts | 354° |
| 2026-04-23 12:58 | 55.63161 | 17.16269 | 34152 ft | 397 kts | 356° |
| 2026-04-23 12:59 | 55.68680 | 17.16462 | 34159 ft | 396 kts | 2° |